sensor_id;sensor_type;location;lat;lon;timestamp;temperature;humidity
12893;DHT22;6514;48.606;9.222;2023-05-17T00:01:51;6.50;99.90
12893;DHT22;6514;48.606;9.222;2023-05-17T00:04:19;6.40;99.90
12893;DHT22;6514;48.606;9.222;2023-05-17T00:06:46;6.40;99.90
12893;DHT22;6514;48.606;9.222;2023-05-17T00:09:15;6.30;99.90
12893;DHT22;6514;48.606;9.222;2023-05-17T00:11:41;6.30;99.90
12893;DHT22;6514;48.606;9.222;2023-05-17T00:14:08;6.30;99.90
12893;DHT22;6514;48.606;9.222;2023-05-17T00:16:36;6.20;99.90
12893;DHT22;6514;48.606;9.222;2023-05-17T00:19:03;6.20;99.90
12893;DHT22;6514;48.606;9.222;2023-05-17T00:21:29;6.20;99.90
12893;DHT22;6514;48.606;9.222;2023-05-17T00:23:56;6.20;99.90
12893;DHT22;6514;48.606;9.222;2023-05-17T00:26:25;6.20;99.90
12893;DHT22;6514;48.606;9.222;2023-05-17T00:28:51;6.20;99.90
12893;DHT22;6514;48.606;9.222;2023-05-17T00:31:18;6.30;99.90
12893;DHT22;6514;48.606;9.222;2023-05-17T00:33:45;6.30;99.90
12893;DHT22;6514;48.606;9.222;2023-05-17T00:36:12;6.30;99.90
12893;DHT22;6514;48.606;9.222;2023-05-17T00:38:39;6.30;99.90
12893;DHT22;6514;48.606;9.222;2023-05-17T00:41:06;6.30;99.90
12893;DHT22;6514;48.606;9.222;2023-05-17T00:43:34;6.10;99.90
12893;DHT22;6514;48.606;9.222;2023-05-17T00:46:01;6.00;99.90
12893;DHT22;6514;48.606;9.222;2023-05-17T00:48:28;5.80;99.90
12893;DHT22;6514;48.606;9.222;2023-05-17T00:50:56;5.80;99.90
12893;DHT22;6514;48.606;9.222;2023-05-17T00:53:24;5.70;99.90
12893;DHT22;6514;48.606;9.222;2023-05-17T00:55:53;5.70;99.90
12893;DHT22;6514;48.606;9.222;2023-05-17T00:58:20;5.60;99.90
12893;DHT22;6514;48.606;9.222;2023-05-17T01:00:49;5.50;99.90
12893;DHT22;6514;48.606;9.222;2023-05-17T01:03:16;5.50;99.90
12893;DHT22;6514;48.606;9.222;2023-05-17T01:05:43;5.40;99.90
12893;DHT22;6514;48.606;9.222;2023-05-17T01:08:10;5.30;99.90
12893;DHT22;6514;48.606;9.222;2023-05-17T01:10:55;5.30;99.90
12893;DHT22;6514;48.606;9.222;2023-05-17T01:13:28;5.20;99.90
12893;DHT22;6514;48.606;9.222;2023-05-17T01:16:04;5.20;99.90
12893;DHT22;6514;48.606;9.222;2023-05-17T01:18:38;5.10;99.90
12893;DHT22;6514;48.606;9.222;2023-05-17T01:21:28;5.10;99.90
12893;DHT22;6514;48.606;9.222;2023-05-17T01:24:05;5.00;99.90
12893;DHT22;6514;48.606;9.222;2023-05-17T01:26:38;5.00;99.90
12893;DHT22;6514;48.606;9.222;2023-05-17T01:29:07;5.00;99.90
12893;DHT22;6514;48.606;9.222;2023-05-17T01:31:35;5.00;99.90
12893;DHT22;6514;48.606;9.222;2023-05-17T01:34:06;4.90;99.90
12893;DHT22;6514;48.606;9.222;2023-05-17T01:36:32;4.90;99.90
12893;DHT22;6514;48.606;9.222;2023-05-17T01:38:59;4.90;99.90
12893;DHT22;6514;48.606;9.222;2023-05-17T01:41:29;4.90;99.90
12893;DHT22;6514;48.606;9.222;2023-05-17T01:44:05;4.90;99.90
12893;DHT22;6514;48.606;9.222;2023-05-17T01:46:38;4.80;99.90
12893;DHT22;6514;48.606;9.222;2023-05-17T01:49:09;4.80;99.90
12893;DHT22;6514;48.606;9.222;2023-05-17T01:51:45;4.70;99.90
12893;DHT22;6514;48.606;9.222;2023-05-17T01:54:14;4.80;99.90
12893;DHT22;6514;48.606;9.222;2023-05-17T01:56:50;4.70;99.90
12893;DHT22;6514;48.606;9.222;2023-05-17T01:59:21;4.70;99.90
12893;DHT22;6514;48.606;9.222;2023-05-17T02:01:52;4.80;99.90
12893;DHT22;6514;48.606;9.222;2023-05-17T02:04:19;4.80;99.90
12893;DHT22;6514;48.606;9.222;2023-05-17T02:06:46;4.80;99.90
12893;DHT22;6514;48.606;9.222;2023-05-17T02:09:13;4.80;99.90
12893;DHT22;6514;48.606;9.222;2023-05-17T02:11:40;4.80;99.90
12893;DHT22;6514;48.606;9.222;2023-05-17T02:14:07;4.80;99.90
12893;DHT22;6514;48.606;9.222;2023-05-17T02:16:35;4.60;99.90
12893;DHT22;6514;48.606;9.222;2023-05-17T02:19:02;4.60;99.90
12893;DHT22;6514;48.606;9.222;2023-05-17T02:21:29;4.50;99.90
12893;DHT22;6514;48.606;9.222;2023-05-17T02:23:56;4.40;99.90
12893;DHT22;6514;48.606;9.222;2023-05-17T02:26:23;4.40;99.90
12893;DHT22;6514;48.606;9.222;2023-05-17T02:28:49;4.30;99.90
12893;DHT22;6514;48.606;9.222;2023-05-17T02:31:16;4.20;99.90
12893;DHT22;6514;48.606;9.222;2023-05-17T02:33:45;4.20;99.90
12893;DHT22;6514;48.606;9.222;2023-05-17T02:36:12;4.10;99.90
12893;DHT22;6514;48.606;9.222;2023-05-17T02:38:39;4.00;99.90
12893;DHT22;6514;48.606;9.222;2023-05-17T02:41:06;4.00;99.90
12893;DHT22;6514;48.606;9.222;2023-05-17T02:43:32;3.90;99.90
12893;DHT22;6514;48.606;9.222;2023-05-17T02:45:59;3.90;99.90
12893;DHT22;6514;48.606;9.222;2023-05-17T02:48:26;3.80;99.90
12893;DHT22;6514;48.606;9.222;2023-05-17T02:50:54;3.80;99.90
12893;DHT22;6514;48.606;9.222;2023-05-17T02:53:21;3.70;99.90
12893;DHT22;6514;48.606;9.222;2023-05-17T02:55:48;3.70;99.90
12893;DHT22;6514;48.606;9.222;2023-05-17T02:58:15;3.70;99.90
12893;DHT22;6514;48.606;9.222;2023-05-17T03:00:43;3.70;99.90
12893;DHT22;6514;48.606;9.222;2023-05-17T03:03:10;3.60;99.90
12893;DHT22;6514;48.606;9.222;2023-05-17T03:05:37;3.60;99.90
12893;DHT22;6514;48.606;9.222;2023-05-17T03:08:05;3.60;99.90
12893;DHT22;6514;48.606;9.222;2023-05-17T03:10:32;3.60;99.90
12893;DHT22;6514;48.606;9.222;2023-05-17T03:12:59;3.60;99.90
12893;DHT22;6514;48.606;9.222;2023-05-17T03:15:26;3.60;99.90
12893;DHT22;6514;48.606;9.222;2023-05-17T03:17:54;3.60;99.90
12893;DHT22;6514;48.606;9.222;2023-05-17T03:20:21;3.70;99.90
12893;DHT22;6514;48.606;9.222;2023-05-17T03:22:47;3.70;99.90
12893;DHT22;6514;48.606;9.222;2023-05-17T03:25:16;3.80;99.90
12893;DHT22;6514;48.606;9.222;2023-05-17T03:27:43;3.90;99.90
12893;DHT22;6514;48.606;9.222;2023-05-17T03:30:10;4.00;99.90
12893;DHT22;6514;48.606;9.222;2023-05-17T03:32:38;4.10;99.90
12893;DHT22;6514;48.606;9.222;2023-05-17T03:35:06;4.10;99.90
12893;DHT22;6514;48.606;9.222;2023-05-17T03:37:33;4.20;99.90
12893;DHT22;6514;48.606;9.222;2023-05-17T03:39:59;4.20;99.90
12893;DHT22;6514;48.606;9.222;2023-05-17T03:42:27;4.20;99.90
12893;DHT22;6514;48.606;9.222;2023-05-17T03:44:55;4.30;99.90
12893;DHT22;6514;48.606;9.222;2023-05-17T03:47:22;4.30;99.90
12893;DHT22;6514;48.606;9.222;2023-05-17T03:49:49;4.30;99.90
12893;DHT22;6514;48.606;9.222;2023-05-17T03:52:15;4.30;99.90
12893;DHT22;6514;48.606;9.222;2023-05-17T03:54:42;4.40;99.90
12893;DHT22;6514;48.606;9.222;2023-05-17T03:57:09;4.40;99.90
12893;DHT22;6514;48.606;9.222;2023-05-17T03:59:37;4.50;99.90
12893;DHT22;6514;48.606;9.222;2023-05-17T04:02:04;4.60;99.90
12893;DHT22;6514;48.606;9.222;2023-05-17T04:04:31;4.60;99.90
12893;DHT22;6514;48.606;9.222;2023-05-17T04:06:58;4.70;99.90
12893;DHT22;6514;48.606;9.222;2023-05-17T04:09:25;4.80;99.90
12893;DHT22;6514;48.606;9.222;2023-05-17T04:11:52;4.90;99.90
12893;DHT22;6514;48.606;9.222;2023-05-17T04:14:18;4.90;99.90
12893;DHT22;6514;48.606;9.222;2023-05-17T04:16:48;5.00;99.90
12893;DHT22;6514;48.606;9.222;2023-05-17T04:19:15;5.10;99.90
12893;DHT22;6514;48.606;9.222;2023-05-17T04:21:42;5.20;99.90
12893;DHT22;6514;48.606;9.222;2023-05-17T04:24:10;5.30;99.90
12893;DHT22;6514;48.606;9.222;2023-05-17T04:26:37;5.30;99.90
12893;DHT22;6514;48.606;9.222;2023-05-17T04:29:04;5.40;99.90
12893;DHT22;6514;48.606;9.222;2023-05-17T04:31:31;5.50;99.90
12893;DHT22;6514;48.606;9.222;2023-05-17T04:33:59;5.50;99.90
12893;DHT22;6514;48.606;9.222;2023-05-17T04:36:27;5.60;99.90
12893;DHT22;6514;48.606;9.222;2023-05-17T04:38:54;5.70;99.90
12893;DHT22;6514;48.606;9.222;2023-05-17T04:41:21;5.80;99.90
12893;DHT22;6514;48.606;9.222;2023-05-17T04:43:48;5.80;99.90
12893;DHT22;6514;48.606;9.222;2023-05-17T04:46:15;5.80;99.90
12893;DHT22;6514;48.606;9.222;2023-05-17T04:48:42;5.90;99.90
12893;DHT22;6514;48.606;9.222;2023-05-17T04:51:10;6.00;99.90
12893;DHT22;6514;48.606;9.222;2023-05-17T04:53:37;6.00;99.90
12893;DHT22;6514;48.606;9.222;2023-05-17T04:56:04;6.10;99.90
12893;DHT22;6514;48.606;9.222;2023-05-17T04:58:31;6.20;99.90
12893;DHT22;6514;48.606;9.222;2023-05-17T05:00:58;6.30;99.90
12893;DHT22;6514;48.606;9.222;2023-05-17T05:03:25;6.40;99.90
12893;DHT22;6514;48.606;9.222;2023-05-17T05:05:51;6.40;99.90
12893;DHT22;6514;48.606;9.222;2023-05-17T05:08:20;6.50;99.90
12893;DHT22;6514;48.606;9.222;2023-05-17T05:10:46;6.60;99.90
12893;DHT22;6514;48.606;9.222;2023-05-17T05:13:14;6.70;99.90
12893;DHT22;6514;48.606;9.222;2023-05-17T05:15:41;6.80;99.90
12893;DHT22;6514;48.606;9.222;2023-05-17T05:18:08;6.90;99.90
12893;DHT22;6514;48.606;9.222;2023-05-17T05:20:34;6.90;99.90
12893;DHT22;6514;48.606;9.222;2023-05-17T05:23:01;7.00;99.90
12893;DHT22;6514;48.606;9.222;2023-05-17T05:25:31;7.00;99.90
12893;DHT22;6514;48.606;9.222;2023-05-17T05:27:58;7.10;99.90
12893;DHT22;6514;48.606;9.222;2023-05-17T05:30:25;7.10;99.90
12893;DHT22;6514;48.606;9.222;2023-05-17T05:32:52;7.30;99.90
12893;DHT22;6514;48.606;9.222;2023-05-17T05:35:19;7.40;99.90
12893;DHT22;6514;48.606;9.222;2023-05-17T05:37:50;7.50;99.90
12893;DHT22;6514;48.606;9.222;2023-05-17T05:40:19;7.70;99.90
12893;DHT22;6514;48.606;9.222;2023-05-17T05:42:47;8.00;99.90
12893;DHT22;6514;48.606;9.222;2023-05-17T05:45:14;8.30;99.90
12893;DHT22;6514;48.606;9.222;2023-05-17T05:47:41;8.60;99.90
12893;DHT22;6514;48.606;9.222;2023-05-17T05:50:09;8.90;99.90
12893;DHT22;6514;48.606;9.222;2023-05-17T05:52:36;9.30;99.90
12893;DHT22;6514;48.606;9.222;2023-05-17T05:55:03;9.50;99.90
12893;DHT22;6514;48.606;9.222;2023-05-17T05:57:30;9.80;99.90
12893;DHT22;6514;48.606;9.222;2023-05-17T05:59:58;10.00;99.90
12893;DHT22;6514;48.606;9.222;2023-05-17T06:02:25;10.40;99.90
12893;DHT22;6514;48.606;9.222;2023-05-17T06:04:52;10.70;99.90
12893;DHT22;6514;48.606;9.222;2023-05-17T06:07:19;11.10;99.90
12893;DHT22;6514;48.606;9.222;2023-05-17T06:09:46;11.30;99.90
12893;DHT22;6514;48.606;9.222;2023-05-17T06:12:13;11.60;99.90
12893;DHT22;6514;48.606;9.222;2023-05-17T06:14:40;11.90;99.90
12893;DHT22;6514;48.606;9.222;2023-05-17T06:17:09;12.00;99.90
12893;DHT22;6514;48.606;9.222;2023-05-17T06:19:36;12.20;99.90
12893;DHT22;6514;48.606;9.222;2023-05-17T06:22:03;12.50;99.90
12893;DHT22;6514;48.606;9.222;2023-05-17T06:24:30;12.60;99.90
12893;DHT22;6514;48.606;9.222;2023-05-17T06:26:57;12.60;99.90
12893;DHT22;6514;48.606;9.222;2023-05-17T06:29:24;12.70;99.90
12893;DHT22;6514;48.606;9.222;2023-05-17T06:31:50;12.80;99.90
12893;DHT22;6514;48.606;9.222;2023-05-17T06:34:19;12.80;99.90
12893;DHT22;6514;48.606;9.222;2023-05-17T06:36:46;13.00;99.90
12893;DHT22;6514;48.606;9.222;2023-05-17T06:39:13;13.20;99.90
12893;DHT22;6514;48.606;9.222;2023-05-17T06:41:40;13.10;99.90
12893;DHT22;6514;48.606;9.222;2023-05-17T06:44:07;13.30;99.90
12893;DHT22;6514;48.606;9.222;2023-05-17T06:46:34;13.60;99.90
12893;DHT22;6514;48.606;9.222;2023-05-17T06:49:01;13.90;99.90
12893;DHT22;6514;48.606;9.222;2023-05-17T06:51:29;14.10;99.90
12893;DHT22;6514;48.606;9.222;2023-05-17T06:53:56;14.30;99.90
12893;DHT22;6514;48.606;9.222;2023-05-17T06:56:23;14.30;99.90
12893;DHT22;6514;48.606;9.222;2023-05-17T06:58:50;14.30;99.90
12893;DHT22;6514;48.606;9.222;2023-05-17T07:01:17;14.20;99.90
12893;DHT22;6514;48.606;9.222;2023-05-17T07:03:44;14.40;99.90
12893;DHT22;6514;48.606;9.222;2023-05-17T07:06:11;14.50;99.90
12893;DHT22;6514;48.606;9.222;2023-05-17T07:08:40;14.70;99.90
12893;DHT22;6514;48.606;9.222;2023-05-17T07:11:06;14.90;99.90
12893;DHT22;6514;48.606;9.222;2023-05-17T07:13:33;14.70;99.90
12893;DHT22;6514;48.606;9.222;2023-05-17T07:16:00;14.50;99.90
12893;DHT22;6514;48.606;9.222;2023-05-17T07:18:27;14.40;99.90
12893;DHT22;6514;48.606;9.222;2023-05-17T07:20:54;14.20;99.90
12893;DHT22;6514;48.606;9.222;2023-05-17T07:23:21;13.70;99.90
12893;DHT22;6514;48.606;9.222;2023-05-17T07:25:49;13.40;99.90
12893;DHT22;6514;48.606;9.222;2023-05-17T07:28:16;13.40;99.90
12893;DHT22;6514;48.606;9.222;2023-05-17T07:30:43;13.80;99.90
12893;DHT22;6514;48.606;9.222;2023-05-17T07:33:09;14.20;99.90
12893;DHT22;6514;48.606;9.222;2023-05-17T07:35:36;14.30;99.90
12893;DHT22;6514;48.606;9.222;2023-05-17T07:38:03;14.10;99.90
12893;DHT22;6514;48.606;9.222;2023-05-17T07:40:30;13.70;99.90
12893;DHT22;6514;48.606;9.222;2023-05-17T07:42:58;13.50;99.90
12893;DHT22;6514;48.606;9.222;2023-05-17T07:45:25;13.20;99.90
12893;DHT22;6514;48.606;9.222;2023-05-17T07:47:52;13.10;99.90
12893;DHT22;6514;48.606;9.222;2023-05-17T07:50:19;13.10;99.90
12893;DHT22;6514;48.606;9.222;2023-05-17T07:52:46;13.20;99.90
12893;DHT22;6514;48.606;9.222;2023-05-17T07:55:13;13.60;99.90
12893;DHT22;6514;48.606;9.222;2023-05-17T07:57:41;14.30;99.90
12893;DHT22;6514;48.606;9.222;2023-05-17T08:00:10;15.00;99.90
12893;DHT22;6514;48.606;9.222;2023-05-17T08:02:38;15.50;99.90
12893;DHT22;6514;48.606;9.222;2023-05-17T08:05:05;15.70;99.90
12893;DHT22;6514;48.606;9.222;2023-05-17T08:07:32;16.10;99.90
12893;DHT22;6514;48.606;9.222;2023-05-17T08:09:59;16.20;99.90
12893;DHT22;6514;48.606;9.222;2023-05-17T08:12:26;16.00;99.90
12893;DHT22;6514;48.606;9.222;2023-05-17T08:14:54;15.50;99.90
12893;DHT22;6514;48.606;9.222;2023-05-17T08:17:23;15.30;99.90
12893;DHT22;6514;48.606;9.222;2023-05-17T08:19:50;15.10;99.90
12893;DHT22;6514;48.606;9.222;2023-05-17T08:22:17;15.40;99.90
12893;DHT22;6514;48.606;9.222;2023-05-17T08:24:45;15.60;99.90
12893;DHT22;6514;48.606;9.222;2023-05-17T08:27:12;15.80;99.90
12893;DHT22;6514;48.606;9.222;2023-05-17T08:29:39;15.70;99.90
12893;DHT22;6514;48.606;9.222;2023-05-17T08:32:06;15.80;99.90
12893;DHT22;6514;48.606;9.222;2023-05-17T08:34:34;15.90;99.90
12893;DHT22;6514;48.606;9.222;2023-05-17T08:37:01;16.10;99.90
12893;DHT22;6514;48.606;9.222;2023-05-17T08:39:28;15.80;99.90
12893;DHT22;6514;48.606;9.222;2023-05-17T08:41:56;15.50;99.90
12893;DHT22;6514;48.606;9.222;2023-05-17T08:44:25;14.80;99.90
12893;DHT22;6514;48.606;9.222;2023-05-17T08:46:54;15.00;99.90
12893;DHT22;6514;48.606;9.222;2023-05-17T08:49:24;15.70;99.90
12893;DHT22;6514;48.606;9.222;2023-05-17T08:51:56;16.30;99.90
12893;DHT22;6514;48.606;9.222;2023-05-17T08:54:25;16.40;99.90
12893;DHT22;6514;48.606;9.222;2023-05-17T08:56:54;16.00;99.90
12893;DHT22;6514;48.606;9.222;2023-05-17T08:59:23;15.40;99.90
12893;DHT22;6514;48.606;9.222;2023-05-17T09:01:52;15.10;99.90
12893;DHT22;6514;48.606;9.222;2023-05-17T09:04:20;15.20;99.90
12893;DHT22;6514;48.606;9.222;2023-05-17T09:06:47;15.70;99.90
12893;DHT22;6514;48.606;9.222;2023-05-17T09:09:17;16.00;99.90
12893;DHT22;6514;48.606;9.222;2023-05-17T09:11:44;16.40;99.90
12893;DHT22;6514;48.606;9.222;2023-05-17T09:14:14;16.90;99.90
12893;DHT22;6514;48.606;9.222;2023-05-17T09:16:42;17.30;99.90
12893;DHT22;6514;48.606;9.222;2023-05-17T09:19:14;17.50;99.90
12893;DHT22;6514;48.606;9.222;2023-05-17T09:21:45;17.40;99.90
12893;DHT22;6514;48.606;9.222;2023-05-17T09:24:12;17.40;99.90
12893;DHT22;6514;48.606;9.222;2023-05-17T09:26:41;17.50;99.90
12893;DHT22;6514;48.606;9.222;2023-05-17T09:29:09;17.90;99.90
12893;DHT22;6514;48.606;9.222;2023-05-17T09:31:37;17.70;99.90
12893;DHT22;6514;48.606;9.222;2023-05-17T09:34:04;17.20;99.90
12893;DHT22;6514;48.606;9.222;2023-05-17T09:36:32;16.80;99.90
12893;DHT22;6514;48.606;9.222;2023-05-17T09:39:00;16.70;99.90
12893;DHT22;6514;48.606;9.222;2023-05-17T09:41:30;17.00;99.90
12893;DHT22;6514;48.606;9.222;2023-05-17T09:44:02;17.20;99.90
12893;DHT22;6514;48.606;9.222;2023-05-17T09:46:34;16.90;99.90
12893;DHT22;6514;48.606;9.222;2023-05-17T09:49:03;16.70;99.90
12893;DHT22;6514;48.606;9.222;2023-05-17T09:51:35;16.50;99.90
12893;DHT22;6514;48.606;9.222;2023-05-17T09:54:03;16.20;99.90
12893;DHT22;6514;48.606;9.222;2023-05-17T09:56:32;16.00;99.90
12893;DHT22;6514;48.606;9.222;2023-05-17T09:59:01;15.80;99.90
12893;DHT22;6514;48.606;9.222;2023-05-17T10:01:29;15.80;99.90
12893;DHT22;6514;48.606;9.222;2023-05-17T10:03:59;16.10;99.90
12893;DHT22;6514;48.606;9.222;2023-05-17T10:06:28;16.90;99.90
12893;DHT22;6514;48.606;9.222;2023-05-17T10:08:57;16.90;99.90
12893;DHT22;6514;48.606;9.222;2023-05-17T10:11:26;17.20;99.90
12893;DHT22;6514;48.606;9.222;2023-05-17T10:14:06;17.20;99.90
12893;DHT22;6514;48.606;9.222;2023-05-17T10:16:36;17.00;99.90
12893;DHT22;6514;48.606;9.222;2023-05-17T10:19:03;16.70;99.90
12893;DHT22;6514;48.606;9.222;2023-05-17T10:21:30;16.50;99.90
12893;DHT22;6514;48.606;9.222;2023-05-17T10:23:59;16.30;99.90
12893;DHT22;6514;48.606;9.222;2023-05-17T10:26:27;16.20;99.90
12893;DHT22;6514;48.606;9.222;2023-05-17T10:28:56;16.30;99.90
12893;DHT22;6514;48.606;9.222;2023-05-17T10:31:28;16.20;99.90
12893;DHT22;6514;48.606;9.222;2023-05-17T10:33:58;16.50;99.90
12893;DHT22;6514;48.606;9.222;2023-05-17T10:36:26;17.40;99.90
12893;DHT22;6514;48.606;9.222;2023-05-17T10:38:54;18.10;99.90
12893;DHT22;6514;48.606;9.222;2023-05-17T10:41:23;18.80;99.90
12893;DHT22;6514;48.606;9.222;2023-05-17T10:43:52;18.80;99.90
12893;DHT22;6514;48.606;9.222;2023-05-17T10:46:20;18.70;99.90
12893;DHT22;6514;48.606;9.222;2023-05-17T10:48:51;18.40;99.90
12893;DHT22;6514;48.606;9.222;2023-05-17T10:51:22;17.90;99.90
12893;DHT22;6514;48.606;9.222;2023-05-17T10:54:08;17.70;99.90
12893;DHT22;6514;48.606;9.222;2023-05-17T10:56:39;17.20;99.90
12893;DHT22;6514;48.606;9.222;2023-05-17T10:59:17;16.80;99.90
12893;DHT22;6514;48.606;9.222;2023-05-17T11:01:58;16.80;99.90
12893;DHT22;6514;48.606;9.222;2023-05-17T11:04:31;16.90;99.90
12893;DHT22;6514;48.606;9.222;2023-05-17T11:07:24;16.80;99.90
12893;DHT22;6514;48.606;9.222;2023-05-17T11:09:54;17.00;99.90
12893;DHT22;6514;48.606;9.222;2023-05-17T11:12:31;17.00;99.90
12893;DHT22;6514;48.606;9.222;2023-05-17T11:14:59;17.20;99.90
12893;DHT22;6514;48.606;9.222;2023-05-17T11:17:34;17.30;99.90
12893;DHT22;6514;48.606;9.222;2023-05-17T11:20:05;17.30;99.90
12893;DHT22;6514;48.606;9.222;2023-05-17T11:22:37;17.20;99.90
12893;DHT22;6514;48.606;9.222;2023-05-17T11:25:09;17.20;99.90
12893;DHT22;6514;48.606;9.222;2023-05-17T11:27:38;17.10;99.90
12893;DHT22;6514;48.606;9.222;2023-05-17T11:30:15;17.00;99.90
12893;DHT22;6514;48.606;9.222;2023-05-17T11:32:48;16.90;99.90
12893;DHT22;6514;48.606;9.222;2023-05-17T11:35:18;16.60;99.90
12893;DHT22;6514;48.606;9.222;2023-05-17T11:37:45;16.50;99.90
12893;DHT22;6514;48.606;9.222;2023-05-17T11:40:23;16.40;99.90
12893;DHT22;6514;48.606;9.222;2023-05-17T11:43:09;16.20;99.90
12893;DHT22;6514;48.606;9.222;2023-05-17T11:45:44;16.00;99.90
12893;DHT22;6514;48.606;9.222;2023-05-17T11:48:12;16.10;99.90
12893;DHT22;6514;48.606;9.222;2023-05-17T11:50:41;16.20;99.90
12893;DHT22;6514;48.606;9.222;2023-05-17T11:53:09;16.40;99.90
12893;DHT22;6514;48.606;9.222;2023-05-17T11:55:38;16.90;99.90
12893;DHT22;6514;48.606;9.222;2023-05-17T11:58:07;17.40;99.90
12893;DHT22;6514;48.606;9.222;2023-05-17T12:00:35;17.80;99.90
12893;DHT22;6514;48.606;9.222;2023-05-17T12:03:19;17.80;99.90
12893;DHT22;6514;48.606;9.222;2023-05-17T12:05:49;17.20;99.90
12893;DHT22;6514;48.606;9.222;2023-05-17T12:08:16;16.90;99.90
12893;DHT22;6514;48.606;9.222;2023-05-17T12:10:45;16.80;99.90
12893;DHT22;6514;48.606;9.222;2023-05-17T12:13:12;16.70;99.90
12893;DHT22;6514;48.606;9.222;2023-05-17T12:15:40;17.00;99.90
12893;DHT22;6514;48.606;9.222;2023-05-17T12:18:10;17.30;99.90
12893;DHT22;6514;48.606;9.222;2023-05-17T12:20:37;17.40;99.90
12893;DHT22;6514;48.606;9.222;2023-05-17T12:23:06;17.20;99.90
12893;DHT22;6514;48.606;9.222;2023-05-17T12:25:32;17.30;99.90
12893;DHT22;6514;48.606;9.222;2023-05-17T12:28:12;17.30;99.90
12893;DHT22;6514;48.606;9.222;2023-05-17T12:30:39;17.50;99.90
12893;DHT22;6514;48.606;9.222;2023-05-17T12:33:06;17.60;99.90
12893;DHT22;6514;48.606;9.222;2023-05-17T12:35:33;17.70;99.90
12893;DHT22;6514;48.606;9.222;2023-05-17T12:38:01;17.60;99.90
12893;DHT22;6514;48.606;9.222;2023-05-17T12:40:29;17.40;99.90
12893;DHT22;6514;48.606;9.222;2023-05-17T12:43:00;17.30;99.90
12893;DHT22;6514;48.606;9.222;2023-05-17T12:45:28;16.90;99.90
12893;DHT22;6514;48.606;9.222;2023-05-17T12:47:55;16.90;99.90
12893;DHT22;6514;48.606;9.222;2023-05-17T12:50:27;17.00;99.90
12893;DHT22;6514;48.606;9.222;2023-05-17T12:52:55;17.50;99.90
12893;DHT22;6514;48.606;9.222;2023-05-17T12:55:22;17.90;99.90
12893;DHT22;6514;48.606;9.222;2023-05-17T12:57:52;18.10;99.90
12893;DHT22;6514;48.606;9.222;2023-05-17T13:00:19;18.40;99.90
12893;DHT22;6514;48.606;9.222;2023-05-17T13:02:47;18.60;99.90
12893;DHT22;6514;48.606;9.222;2023-05-17T13:05:15;18.50;99.90
12893;DHT22;6514;48.606;9.222;2023-05-17T13:07:43;18.30;99.90
12893;DHT22;6514;48.606;9.222;2023-05-17T13:10:21;18.20;99.90
12893;DHT22;6514;48.606;9.222;2023-05-17T13:12:59;18.10;99.90
12893;DHT22;6514;48.606;9.222;2023-05-17T13:15:27;18.00;99.90
12893;DHT22;6514;48.606;9.222;2023-05-17T13:17:54;17.50;99.90
12893;DHT22;6514;48.606;9.222;2023-05-17T13:20:21;17.40;99.90
12893;DHT22;6514;48.606;9.222;2023-05-17T13:22:49;17.50;99.90
12893;DHT22;6514;48.606;9.222;2023-05-17T13:25:16;17.40;99.90
12893;DHT22;6514;48.606;9.222;2023-05-17T13:27:44;17.20;99.90
12893;DHT22;6514;48.606;9.222;2023-05-17T13:30:15;16.70;99.90
12893;DHT22;6514;48.606;9.222;2023-05-17T13:32:42;16.50;99.90
12893;DHT22;6514;48.606;9.222;2023-05-17T13:35:09;16.30;99.90
12893;DHT22;6514;48.606;9.222;2023-05-17T13:37:36;16.00;99.90
12893;DHT22;6514;48.606;9.222;2023-05-17T13:40:04;15.90;99.90
12893;DHT22;6514;48.606;9.222;2023-05-17T13:42:31;15.80;99.90
12893;DHT22;6514;48.606;9.222;2023-05-17T13:44:58;16.10;99.90
12893;DHT22;6514;48.606;9.222;2023-05-17T13:47:27;16.50;99.90
12893;DHT22;6514;48.606;9.222;2023-05-17T13:49:57;17.00;99.90
12893;DHT22;6514;48.606;9.222;2023-05-17T13:52:24;17.10;99.90
12893;DHT22;6514;48.606;9.222;2023-05-17T13:54:51;16.80;99.90
12893;DHT22;6514;48.606;9.222;2023-05-17T13:57:18;16.50;99.90
12893;DHT22;6514;48.606;9.222;2023-05-17T13:59:45;16.40;99.90
12893;DHT22;6514;48.606;9.222;2023-05-17T14:02:12;16.30;99.90
12893;DHT22;6514;48.606;9.222;2023-05-17T14:04:41;16.50;99.90
12893;DHT22;6514;48.606;9.222;2023-05-17T14:07:07;16.80;99.90
12893;DHT22;6514;48.606;9.222;2023-05-17T14:09:34;17.10;99.90
12893;DHT22;6514;48.606;9.222;2023-05-17T14:12:02;17.40;99.90
12893;DHT22;6514;48.606;9.222;2023-05-17T14:14:30;17.20;99.90
12893;DHT22;6514;48.606;9.222;2023-05-17T14:16:57;17.00;99.90
12893;DHT22;6514;48.606;9.222;2023-05-17T14:19:25;16.80;99.90
12893;DHT22;6514;48.606;9.222;2023-05-17T14:21:53;16.90;99.90
12893;DHT22;6514;48.606;9.222;2023-05-17T14:24:20;17.20;99.90
12893;DHT22;6514;48.606;9.222;2023-05-17T14:26:47;17.20;99.90
12893;DHT22;6514;48.606;9.222;2023-05-17T14:29:14;17.00;99.90
12893;DHT22;6514;48.606;9.222;2023-05-17T14:31:41;16.80;99.90
12893;DHT22;6514;48.606;9.222;2023-05-17T14:34:08;16.70;99.90
12893;DHT22;6514;48.606;9.222;2023-05-17T14:36:35;16.50;99.90
12893;DHT22;6514;48.606;9.222;2023-05-17T14:39:04;16.30;99.90
12893;DHT22;6514;48.606;9.222;2023-05-17T14:41:31;16.20;99.90
12893;DHT22;6514;48.606;9.222;2023-05-17T14:43:58;16.20;99.90
12893;DHT22;6514;48.606;9.222;2023-05-17T14:46:24;16.30;99.90
12893;DHT22;6514;48.606;9.222;2023-05-17T14:48:51;16.30;99.90
12893;DHT22;6514;48.606;9.222;2023-05-17T14:51:20;16.50;99.90
12893;DHT22;6514;48.606;9.222;2023-05-17T14:53:47;16.80;99.90
12893;DHT22;6514;48.606;9.222;2023-05-17T14:56:16;17.10;99.90
12893;DHT22;6514;48.606;9.222;2023-05-17T14:58:43;17.40;99.90
12893;DHT22;6514;48.606;9.222;2023-05-17T15:01:10;17.30;99.90
12893;DHT22;6514;48.606;9.222;2023-05-17T15:03:36;17.20;99.90
12893;DHT22;6514;48.606;9.222;2023-05-17T15:06:04;17.20;99.90
12893;DHT22;6514;48.606;9.222;2023-05-17T15:08:31;17.10;99.90
12893;DHT22;6514;48.606;9.222;2023-05-17T15:10:59;16.90;99.90
12893;DHT22;6514;48.606;9.222;2023-05-17T15:13:27;16.60;99.90
12893;DHT22;6514;48.606;9.222;2023-05-17T15:15:54;16.30;99.90
12893;DHT22;6514;48.606;9.222;2023-05-17T15:18:21;16.10;99.90
12893;DHT22;6514;48.606;9.222;2023-05-17T15:20:48;16.00;99.90
12893;DHT22;6514;48.606;9.222;2023-05-17T15:23:15;15.90;99.90
12893;DHT22;6514;48.606;9.222;2023-05-17T15:25:42;15.70;99.90
12893;DHT22;6514;48.606;9.222;2023-05-17T15:28:09;15.70;99.90
12893;DHT22;6514;48.606;9.222;2023-05-17T15:30:37;15.60;99.90
12893;DHT22;6514;48.606;9.222;2023-05-17T15:33:06;15.70;99.90
12893;DHT22;6514;48.606;9.222;2023-05-17T15:35:33;16.00;99.90
12893;DHT22;6514;48.606;9.222;2023-05-17T15:38:03;16.40;99.90
12893;DHT22;6514;48.606;9.222;2023-05-17T15:40:31;16.50;99.90
12893;DHT22;6514;48.606;9.222;2023-05-17T15:42:58;16.30;99.90
12893;DHT22;6514;48.606;9.222;2023-05-17T15:45:25;15.90;99.90
12893;DHT22;6514;48.606;9.222;2023-05-17T15:47:53;15.50;99.90
12893;DHT22;6514;48.606;9.222;2023-05-17T15:50:21;15.20;99.90
12893;DHT22;6514;48.606;9.222;2023-05-17T15:52:48;14.90;99.90
12893;DHT22;6514;48.606;9.222;2023-05-17T15:55:15;15.00;99.90
12893;DHT22;6514;48.606;9.222;2023-05-17T15:57:42;15.20;99.90
12893;DHT22;6514;48.606;9.222;2023-05-17T16:00:10;15.40;99.90